Time;durP1;ratioP1;P1;durP2;ratioP2;P2;SDS_P1;SDS_P2;PMS_P1;PMS_P2;Temp;Humidity;BMP_temperature;BMP_pressure;BME280_temperature;BME280_humidity;BME280_pressure;Samples;Min_cycle;Max_cycle;Signal;HPM_P1;HPM_P2
2023/12/29 00:01:30;;;;;;;;;;;20.00;49.20;;;;;;5072126;28;19920;-59
2023/12/29 00:03:58;;;;;;;;;;;20.00;49.20;;;;;;5073953;28;19924;-59
2023/12/29 00:06:25;;;;;;;;;;;20.00;49.20;;;;;;5091524;28;19924;-60
2023/12/29 00:08:52;;;;;;;;;;;20.00;49.20;;;;;;5094209;28;19927;-59
2023/12/29 00:11:19;;;;;;;;;;;20.00;49.20;;;;;;5099766;28;19965;-58
2023/12/29 00:13:46;;;;;;;;;;;20.00;49.20;;;;;;5060351;28;20014;-59
2023/12/29 00:16:12;;;;;;;;;;;20.00;49.20;;;;;;5071621;28;19920;-59
2023/12/29 00:18:39;;;;;;;;;;;20.00;49.20;;;;;;5073582;28;19964;-59
2023/12/29 00:21:08;;;;;;;;;;;20.00;49.20;;;;;;5073896;28;19920;-58
2023/12/29 00:23:34;;;;;;;;;;;20.00;49.20;;;;;;5071780;28;19974;-59
2023/12/29 00:26:01;;;;;;;;;;;20.00;49.20;;;;;;5056527;28;19947;-59
2023/12/29 00:28:28;;;;;;;;;;;20.00;49.20;;;;;;5073678;28;19952;-59
2023/12/29 00:30:55;;;;;;;;;;;20.00;49.20;;;;;;5078294;28;19924;-59
2023/12/29 00:33:21;;;;;;;;;;;20.00;49.20;;;;;;5081130;28;19920;-59
2023/12/29 00:35:51;;;;;;;;;;;20.00;49.20;;;;;;5097459;28;19931;-59
2023/12/29 00:38:19;;;;;;;;;;;20.00;49.20;;;;;;5073554;28;19930;-58
2023/12/29 00:40:46;;;;;;;;;;;20.00;49.20;;;;;;5088291;28;19920;-59
2023/12/29 00:43:12;;;;;;;;;;;20.00;49.20;;;;;;5093499;28;19920;-59
2023/12/29 00:45:39;;;;;;;;;;;20.00;49.20;;;;;;5107495;28;19967;-59
2023/12/29 00:48:06;;;;;;;;;;;20.00;49.20;;;;;;5079310;28;19934;-59
2023/12/29 00:50:33;;;;;;;;;;;20.00;49.20;;;;;;5084888;28;20572;-59
2023/12/29 00:53:00;;;;;;;;;;;20.00;49.10;;;;;;5087997;28;19932;-59
2023/12/29 00:55:28;;;;;;;;;;;20.00;49.10;;;;;;5107664;28;19927;-59
2023/12/29 00:57:55;;;;;;;;;;;20.00;49.10;;;;;;5094490;28;19919;-59
2023/12/29 01:00:21;;;;;;;;;;;20.00;49.10;;;;;;5110667;28;19919;-59
2023/12/29 01:02:48;;;;;;;;;;;20.00;49.10;;;;;;5108129;28;19969;-59
2023/12/29 01:05:15;;;;;;;;;;;20.00;49.10;;;;;;5090122;28;19924;-59
2023/12/29 01:07:42;;;;;;;;;;;20.00;49.10;;;;;;5101320;28;19931;-59
2023/12/29 01:10:09;;;;;;;;;;;20.00;49.10;;;;;;5095209;28;19927;-59
2023/12/29 01:12:37;;;;;;;;;;;20.00;49.10;;;;;;5103086;28;19976;-59
2023/12/29 01:15:04;;;;;;;;;;;20.00;49.10;;;;;;5086881;28;19924;-59
2023/12/29 01:17:31;;;;;;;;;;;20.00;49.10;;;;;;5095307;28;19933;-59
2023/12/29 01:19:58;;;;;;;;;;;20.00;49.10;;;;;;5104204;28;19923;-59
2023/12/29 01:22:25;;;;;;;;;;;20.00;49.10;;;;;;5094991;28;20262;-58
2023/12/29 01:24:52;;;;;;;;;;;20.00;49.10;;;;;;5099254;28;20377;-59
2023/12/29 01:27:18;;;;;;;;;;;20.00;49.10;;;;;;5091758;28;19989;-59
2023/12/29 01:29:46;;;;;;;;;;;20.00;49.10;;;;;;5109711;28;19920;-59
2023/12/29 01:32:13;;;;;;;;;;;20.00;49.10;;;;;;5097637;28;19920;-59
2023/12/29 01:34:40;;;;;;;;;;;20.00;49.10;;;;;;5100591;28;20276;-59
2023/12/29 01:37:06;;;;;;;;;;;20.00;49.10;;;;;;5104299;28;19919;-59
2023/12/29 01:39:34;;;;;;;;;;;20.00;49.10;;;;;;5109716;28;19965;-59
2023/12/29 01:42:00;;;;;;;;;;;19.90;49.00;;;;;;5094230;28;19941;-59
2023/12/29 01:44:28;;;;;;;;;;;20.00;49.10;;;;;;5101693;28;19950;-59
2023/12/29 01:46:57;;;;;;;;;;;20.00;49.70;;;;;;5096101;28;19928;-59
2023/12/29 01:49:24;;;;;;;;;;;20.00;49.10;;;;;;5089884;28;19989;-59
2023/12/29 01:51:51;;;;;;;;;;;20.00;49.10;;;;;;5100750;28;19928;-59
2023/12/29 01:54:18;;;;;;;;;;;20.00;49.10;;;;;;5110111;28;19963;-59
2023/12/29 01:56:44;;;;;;;;;;;20.00;49.10;;;;;;5109875;28;19927;-59
2023/12/29 01:59:11;;;;;;;;;;;19.90;49.00;;;;;;5094661;28;20175;-59
2023/12/29 02:01:38;;;;;;;;;;;20.00;49.00;;;;;;5110220;28;20329;-59
2023/12/29 02:04:06;;;;;;;;;;;20.00;49.10;;;;;;5093535;28;19937;-59
2023/12/29 02:06:33;;;;;;;;;;;20.00;49.10;;;;;;5105813;28;19924;-59
2023/12/29 02:08:59;;;;;;;;;;;20.00;49.10;;;;;;5099413;28;19924;-59
2023/12/29 02:11:26;;;;;;;;;;;19.90;49.00;;;;;;5097639;28;19920;-59
2023/12/29 02:13:53;;;;;;;;;;;20.00;49.10;;;;;;5113411;28;19924;-59
2023/12/29 02:16:22;;;;;;;;;;;19.90;49.00;;;;;;5106331;28;19920;-59
2023/12/29 02:18:48;;;;;;;;;;;20.00;49.10;;;;;;5085640;28;19923;-59
2023/12/29 02:21:16;;;;;;;;;;;19.90;49.00;;;;;;5107155;28;19989;-59
2023/12/29 02:23:43;;;;;;;;;;;19.90;49.00;;;;;;5112670;28;20433;-59
2023/12/29 02:26:11;;;;;;;;;;;20.00;49.00;;;;;;5112974;28;19972;-59
2023/12/29 02:28:39;;;;;;;;;;;20.00;49.10;;;;;;5096262;28;19924;-59
2023/12/29 02:31:06;;;;;;;;;;;19.90;49.00;;;;;;5098487;28;19923;-59
2023/12/29 02:33:33;;;;;;;;;;;19.90;49.00;;;;;;5092667;28;19920;-59
2023/12/29 02:36:00;;;;;;;;;;;19.90;49.00;;;;;;5091541;28;19965;-59
2023/12/29 02:38:28;;;;;;;;;;;19.90;49.00;;;;;;5100964;28;19920;-59
2023/12/29 02:40:55;;;;;;;;;;;20.00;49.00;;;;;;5103585;28;19947;-59
2023/12/29 02:43:23;;;;;;;;;;;20.00;49.00;;;;;;5112756;28;19969;-59
2023/12/29 02:45:50;;;;;;;;;;;20.00;49.00;;;;;;5109954;27;19973;-59
2023/12/29 02:48:17;;;;;;;;;;;20.00;49.00;;;;;;5093814;28;19935;-59
2023/12/29 02:50:43;;;;;;;;;;;19.90;48.90;;;;;;5089854;28;19919;-59
2023/12/29 02:53:10;;;;;;;;;;;20.00;49.00;;;;;;5120907;27;19920;-59
2023/12/29 02:55:37;;;;;;;;;;;20.00;49.00;;;;;;5109715;28;20009;-59
2023/12/29 02:58:04;;;;;;;;;;;19.90;48.90;;;;;;5091820;28;20016;-59
2023/12/29 03:00:32;;;;;;;;;;;20.00;49.00;;;;;;5103849;28;19920;-59
2023/12/29 03:02:59;;;;;;;;;;;19.90;48.90;;;;;;5103251;28;19924;-59
2023/12/29 03:05:26;;;;;;;;;;;20.00;49.00;;;;;;5101986;28;19919;-59
2023/12/29 03:07:53;;;;;;;;;;;19.90;48.90;;;;;;5105075;28;20454;-59
2023/12/29 03:10:20;;;;;;;;;;;20.00;49.00;;;;;;5110519;28;19927;-59
2023/12/29 03:12:46;;;;;;;;;;;20.00;49.00;;;;;;5112017;28;19953;-59
2023/12/29 03:15:13;;;;;;;;;;;20.00;49.00;;;;;;5102725;28;19919;-59
2023/12/29 03:17:41;;;;;;;;;;;20.00;49.00;;;;;;5092387;28;19946;-59
2023/12/29 03:20:08;;;;;;;;;;;20.00;49.00;;;;;;5091940;28;19924;-59
2023/12/29 03:22:35;;;;;;;;;;;20.00;49.00;;;;;;5092723;28;19923;-59
2023/12/29 03:25:02;;;;;;;;;;;19.90;48.90;;;;;;5096400;28;19920;-59
2023/12/29 03:27:29;;;;;;;;;;;20.00;49.00;;;;;;5111934;28;19969;-59
2023/12/29 03:29:55;;;;;;;;;;;19.90;49.50;;;;;;5104407;28;20008;-59
2023/12/29 03:32:22;;;;;;;;;;;19.90;48.90;;;;;;5099678;28;20005;-59
2023/12/29 03:34:50;;;;;;;;;;;20.00;49.00;;;;;;5093533;28;19974;-59
2023/12/29 03:37:17;;;;;;;;;;;19.90;48.90;;;;;;5091606;28;20023;-59
2023/12/29 03:39:44;;;;;;;;;;;19.90;48.90;;;;;;5110974;28;19919;-59
2023/12/29 03:42:10;;;;;;;;;;;20.00;49.00;;;;;;5103131;28;19973;-59
2023/12/29 03:44:37;;;;;;;;;;;19.90;48.90;;;;;;5103703;28;19920;-59
2023/12/29 03:47:04;;;;;;;;;;;20.00;49.00;;;;;;5113148;28;19926;-59
2023/12/29 03:49:31;;;;;;;;;;;19.90;48.90;;;;;;5094333;28;19973;-59
2023/12/29 03:51:59;;;;;;;;;;;19.90;48.90;;;;;;5106286;28;19977;-59
2023/12/29 03:54:25;;;;;;;;;;;19.90;48.90;;;;;;5090044;28;19974;-59
2023/12/29 03:56:52;;;;;;;;;;;19.90;48.90;;;;;;5089275;28;20049;-59
2023/12/29 03:59:19;;;;;;;;;;;20.00;49.00;;;;;;5121002;27;19924;-59
2023/12/29 04:01:45;;;;;;;;;;;20.00;49.00;;;;;;5109105;28;20237;-59
2023/12/29 04:04:12;;;;;;;;;;;19.90;48.90;;;;;;5092426;28;19920;-59
2023/12/29 04:06:39;;;;;;;;;;;20.00;49.00;;;;;;5107952;28;19920;-59
2023/12/29 04:09:07;;;;;;;;;;;19.90;48.80;;;;;;5098127;28;19942;-59
2023/12/29 04:11:34;;;;;;;;;;;19.90;48.90;;;;;;5101783;28;19945;-59
2023/12/29 04:14:01;;;;;;;;;;;19.90;48.90;;;;;;5101832;28;19959;-59
2023/12/29 04:16:28;;;;;;;;;;;19.90;48.90;;;;;;5091471;28;19920;-59
2023/12/29 04:18:55;;;;;;;;;;;20.00;48.90;;;;;;5099594;28;19920;-59
2023/12/29 04:21:21;;;;;;;;;;;20.00;48.90;;;;;;5107524;28;19920;-59
2023/12/29 04:23:48;;;;;;;;;;;19.90;48.80;;;;;;5098667;28;19928;-59
2023/12/29 04:26:16;;;;;;;;;;;19.90;48.90;;;;;;5124376;27;19920;-59
2023/12/29 04:28:43;;;;;;;;;;;20.00;48.90;;;;;;5093351;28;19932;-59
2023/12/29 04:31:09;;;;;;;;;;;19.90;48.80;;;;;;5096639;28;19989;-59
2023/12/29 04:33:36;;;;;;;;;;;20.00;48.90;;;;;;5090894;28;20014;-59
2023/12/29 04:36:03;;;;;;;;;;;20.00;48.90;;;;;;5085430;28;19927;-59
2023/12/29 04:38:30;;;;;;;;;;;20.00;48.90;;;;;;5124020;27;19924;-59
2023/12/29 04:40:57;;;;;;;;;;;19.90;48.80;;;;;;5104025;28;19927;-59
2023/12/29 04:43:25;;;;;;;;;;;20.00;48.90;;;;;;5110692;28;19927;-59
2023/12/29 04:45:52;;;;;;;;;;;19.90;48.80;;;;;;5098792;28;20368;-59
2023/12/29 04:48:18;;;;;;;;;;;19.90;48.80;;;;;;5101908;28;19924;-59
2023/12/29 04:50:45;;;;;;;;;;;19.90;48.70;;;;;;5107262;28;19928;-59
2023/12/29 04:53:12;;;;;;;;;;;19.90;48.70;;;;;;5103224;28;19963;-59
2023/12/29 04:55:38;;;;;;;;;;;20.00;48.90;;;;;;5090001;28;19931;-59
2023/12/29 04:58:06;;;;;;;;;;;19.90;48.80;;;;;;5086970;28;19920;-59
2023/12/29 05:00:34;;;;;;;;;;;19.90;48.70;;;;;;5104668;28;19923;-59
2023/12/29 05:03:00;;;;;;;;;;;19.90;48.70;;;;;;5097752;28;19977;-59
2023/12/29 05:05:27;;;;;;;;;;;20.00;48.80;;;;;;5110242;28;19972;-59
2023/12/29 05:07:54;;;;;;;;;;;20.00;48.80;;;;;;5106017;28;19924;-60
2023/12/29 05:10:20;;;;;;;;;;;20.00;48.80;;;;;;5077668;28;20013;-59
2023/12/29 05:12:47;;;;;;;;;;;19.90;48.70;;;;;;5081546;28;19920;-59
2023/12/29 05:15:14;;;;;;;;;;;20.00;48.80;;;;;;5091169;28;19920;-59
2023/12/29 05:17:42;;;;;;;;;;;19.90;48.70;;;;;;5091865;28;19931;-59
2023/12/29 05:20:09;;;;;;;;;;;20.00;48.80;;;;;;5103772;28;19957;-59
2023/12/29 05:22:36;;;;;;;;;;;19.90;48.70;;;;;;5099645;28;19928;-59
2023/12/29 05:25:03;;;;;;;;;;;19.90;48.70;;;;;;5090038;28;20076;-59
2023/12/29 05:27:30;;;;;;;;;;;19.90;48.70;;;;;;5098567;28;20000;-59
2023/12/29 05:29:56;;;;;;;;;;;20.00;48.70;;;;;;5108485;28;19920;-59
2023/12/29 05:32:23;;;;;;;;;;;19.90;48.60;;;;;;5098355;28;19958;-59
2023/12/29 05:34:51;;;;;;;;;;;20.00;48.80;;;;;;5093498;28;20437;-59
2023/12/29 05:37:18;;;;;;;;;;;20.00;48.70;;;;;;5093317;28;19981;-59
2023/12/29 05:39:45;;;;;;;;;;;19.90;48.60;;;;;;5093700;28;19924;-59
2023/12/29 05:42:12;;;;;;;;;;;19.90;48.60;;;;;;5093944;28;19931;-59
2023/12/29 05:44:38;;;;;;;;;;;19.90;48.60;;;;;;5103638;28;20312;-59
2023/12/29 05:47:05;;;;;;;;;;;19.90;48.60;;;;;;5099385;28;19920;-59
2023/12/29 05:49:37;;;;;;;;;;;19.90;48.60;;;;;;5096267;28;19923;-59
2023/12/29 05:52:07;;;;;;;;;;;20.00;48.70;;;;;;5103344;28;19931;-59
2023/12/29 05:54:34;;;;;;;;;;;19.90;48.60;;;;;;5112066;28;19924;-59
2023/12/29 05:57:00;;;;;;;;;;;19.90;48.60;;;;;;5104901;28;19924;-59
2023/12/29 05:59:27;;;;;;;;;;;19.90;48.60;;;;;;5097890;28;19927;-59
2023/12/29 06:01:54;;;;;;;;;;;19.90;48.60;;;;;;5110739;28;19921;-59
2023/12/29 06:04:21;;;;;;;;;;;19.90;48.60;;;;;;5110264;28;19924;-59
2023/12/29 06:06:47;;;;;;;;;;;19.90;48.60;;;;;;5095035;28;19924;-59
2023/12/29 06:09:16;;;;;;;;;;;19.90;48.60;;;;;;5097902;28;19920;-59
2023/12/29 06:11:42;;;;;;;;;;;19.90;48.60;;;;;;5109767;28;19932;-59
2023/12/29 06:14:10;;;;;;;;;;;19.90;48.60;;;;;;5093274;28;20361;-59
2023/12/29 06:16:36;;;;;;;;;;;19.90;48.60;;;;;;5110098;28;19946;-59
2023/12/29 06:19:03;;;;;;;;;;;19.90;48.60;;;;;;5112896;27;20396;-59
2023/12/29 06:21:30;;;;;;;;;;;19.90;48.60;;;;;;5117722;27;19920;-59
2023/12/29 06:23:57;;;;;;;;;;;19.90;48.50;;;;;;5109379;28;19931;-59
2023/12/29 06:26:25;;;;;;;;;;;19.90;48.60;;;;;;5085007;28;19920;-59
2023/12/29 06:28:52;;;;;;;;;;;19.90;48.60;;;;;;5114368;28;19919;-59
2023/12/29 06:31:18;;;;;;;;;;;19.90;48.60;;;;;;5104033;28;19989;-59
2023/12/29 06:33:45;;;;;;;;;;;19.90;48.60;;;;;;5113158;28;19976;-59
2023/12/29 06:36:12;;;;;;;;;;;19.90;48.50;;;;;;5113041;28;20172;-59
2023/12/29 06:38:39;;;;;;;;;;;19.90;48.50;;;;;;5112720;28;19939;-59
2023/12/29 06:41:06;;;;;;;;;;;19.90;48.50;;;;;;5097129;28;19983;-59
2023/12/29 06:43:34;;;;;;;;;;;19.90;48.50;;;;;;5109104;28;19927;-59
2023/12/29 06:46:01;;;;;;;;;;;19.90;48.50;;;;;;5094149;28;19925;-59
2023/12/29 06:48:28;;;;;;;;;;;19.90;48.50;;;;;;5099190;28;19973;-59
2023/12/29 06:50:55;;;;;;;;;;;19.90;48.50;;;;;;5100109;28;19927;-59
2023/12/29 06:53:21;;;;;;;;;;;19.90;48.50;;;;;;5108968;28;20318;-59
2023/12/29 06:55:48;;;;;;;;;;;19.90;48.50;;;;;;5100322;28;19924;-59
2023/12/29 06:58:15;;;;;;;;;;;19.90;48.60;;;;;;5100836;28;19924;-59
2023/12/29 07:00:43;;;;;;;;;;;19.90;48.50;;;;;;5090760;28;19927;-59
2023/12/29 07:03:10;;;;;;;;;;;19.90;48.50;;;;;;5098770;28;20302;-59
2023/12/29 07:05:37;;;;;;;;;;;19.90;48.50;;;;;;5095903;28;19970;-59
2023/12/29 07:08:04;;;;;;;;;;;19.90;48.50;;;;;;5094454;28;19927;-59
2023/12/29 07:10:31;;;;;;;;;;;19.90;48.50;;;;;;5094635;28;19920;-59
2023/12/29 07:12:57;;;;;;;;;;;19.90;48.50;;;;;;5092717;28;19979;-59
2023/12/29 07:15:24;;;;;;;;;;;19.90;48.50;;;;;;5098371;28;19928;-59
2023/12/29 07:17:52;;;;;;;;;;;19.90;48.50;;;;;;5091482;28;19924;-59
2023/12/29 07:20:19;;;;;;;;;;;19.90;48.50;;;;;;5095784;28;19928;-59
2023/12/29 07:22:46;;;;;;;;;;;19.90;48.50;;;;;;5091227;28;19943;-59
2023/12/29 07:25:13;;;;;;;;;;;19.90;48.50;;;;;;5091524;28;19924;-59
2023/12/29 07:27:39;;;;;;;;;;;19.90;48.50;;;;;;5091496;28;19921;-59
2023/12/29 07:30:07;;;;;;;;;;;19.90;48.50;;;;;;5092027;28;19946;-59
2023/12/29 07:32:34;;;;;;;;;;;19.90;48.50;;;;;;5090905;28;19927;-59
2023/12/29 07:35:02;;;;;;;;;;;19.90;48.50;;;;;;5086680;28;19927;-59
2023/12/29 07:37:29;;;;;;;;;;;19.90;48.50;;;;;;5090445;28;19920;-59
2023/12/29 07:39:56;;;;;;;;;;;19.90;48.50;;;;;;5092635;28;19920;-59
2023/12/29 07:42:22;;;;;;;;;;;19.90;48.50;;;;;;5091434;28;19927;-59
2023/12/29 07:44:51;;;;;;;;;;;19.90;48.50;;;;;;5089942;28;19932;-59
2023/12/29 07:47:18;;;;;;;;;;;19.90;48.50;;;;;;5091920;28;19924;-59
2023/12/29 07:49:44;;;;;;;;;;;19.90;48.50;;;;;;5091673;28;19920;-59
2023/12/29 07:52:12;;;;;;;;;;;19.90;48.50;;;;;;5087392;28;19928;-59
2023/12/29 07:54:39;;;;;;;;;;;19.90;48.50;;;;;;5092041;28;19919;-59
2023/12/29 07:57:06;;;;;;;;;;;19.90;48.50;;;;;;5090263;28;19932;-59
2023/12/29 07:59:33;;;;;;;;;;;19.90;48.50;;;;;;5084995;28;19967;-59
2023/12/29 08:02:00;;;;;;;;;;;19.90;48.50;;;;;;5090889;28;19920;-59
2023/12/29 08:04:26;;;;;;;;;;;19.90;48.50;;;;;;5089909;28;19973;-59
2023/12/29 08:06:53;;;;;;;;;;;19.90;48.50;;;;;;5115241;27;19966;-59
2023/12/29 08:09:21;;;;;;;;;;;19.90;48.50;;;;;;5088297;28;19931;-59
2023/12/29 08:11:48;;;;;;;;;;;19.90;48.50;;;;;;5088299;28;19973;-59
2023/12/29 08:14:15;;;;;;;;;;;19.90;48.50;;;;;;5091008;28;19965;-59
2023/12/29 08:16:41;;;;;;;;;;;19.90;48.50;;;;;;5092029;28;19924;-59
2023/12/29 08:19:09;;;;;;;;;;;19.90;48.50;;;;;;5089413;28;20064;-59
2023/12/29 08:21:36;;;;;;;;;;;19.90;48.50;;;;;;5093961;28;19927;-59
2023/12/29 08:24:03;;;;;;;;;;;19.90;48.50;;;;;;5086679;28;19939;-59
2023/12/29 08:26:31;;;;;;;;;;;19.90;48.50;;;;;;5085114;28;19925;-59
2023/12/29 08:28:58;;;;;;;;;;;19.90;48.50;;;;;;5089197;28;19924;-59
2023/12/29 08:31:26;;;;;;;;;;;19.90;48.50;;;;;;5090214;28;19920;-59
2023/12/29 08:33:53;;;;;;;;;;;19.90;48.50;;;;;;5117026;27;19920;-59
2023/12/29 08:36:20;;;;;;;;;;;19.90;48.40;;;;;;5090098;28;20041;-59
2023/12/29 08:38:47;;;;;;;;;;;19.90;48.40;;;;;;5089996;28;20206;-59
2023/12/29 08:41:14;;;;;;;;;;;19.90;48.50;;;;;;5089790;28;19996;-59
2023/12/29 08:43:42;;;;;;;;;;;19.90;48.50;;;;;;5089807;28;19968;-59
2023/12/29 08:46:09;;;;;;;;;;;19.90;48.50;;;;;;5089953;28;19920;-59
2023/12/29 08:48:36;;;;;;;;;;;19.90;48.50;;;;;;5091833;28;20020;-59
2023/12/29 08:51:02;;;;;;;;;;;19.90;48.40;;;;;;5070453;28;19968;-59
2023/12/29 08:53:31;;;;;;;;;;;19.90;48.40;;;;;;5080139;28;19967;-59
2023/12/29 08:55:57;;;;;;;;;;;19.90;48.40;;;;;;5088671;28;19954;-59
2023/12/29 08:58:24;;;;;;;;;;;19.90;48.40;;;;;;5103391;28;19921;-59
2023/12/29 09:00:52;;;;;;;;;;;19.90;48.50;;;;;;5085450;28;19931;-59
2023/12/29 09:03:19;;;;;;;;;;;19.90;48.40;;;;;;5089475;28;19927;-59
2023/12/29 09:05:46;;;;;;;;;;;20.00;48.50;;;;;;5086565;28;20254;-59
2023/12/29 09:08:12;;;;;;;;;;;19.90;48.40;;;;;;5114749;28;20027;-59
2023/12/29 09:10:39;;;;;;;;;;;20.00;48.50;;;;;;5121513;27;19994;-59
2023/12/29 09:13:06;;;;;;;;;;;19.90;48.40;;;;;;5099618;28;19989;-59
2023/12/29 09:15:34;;;;;;;;;;;19.90;48.40;;;;;;5111717;28;19928;-59
2023/12/29 09:18:02;;;;;;;;;;;20.00;48.50;;;;;;5112806;27;19920;-59
2023/12/29 09:20:29;;;;;;;;;;;20.00;48.50;;;;;;5089588;28;19997;-59
2023/12/29 09:22:56;;;;;;;;;;;19.90;48.40;;;;;;5103712;28;19973;-59
2023/12/29 09:25:23;;;;;;;;;;;19.90;48.40;;;;;;5098104;28;19928;-59
2023/12/29 09:27:52;;;;;;;;;;;20.00;48.50;;;;;;5095506;28;19936;-59
2023/12/29 09:30:19;;;;;;;;;;;19.90;48.40;;;;;;5096040;28;19920;-59
2023/12/29 09:32:46;;;;;;;;;;;19.90;48.40;;;;;;5093361;28;19927;-59
2023/12/29 09:35:14;;;;;;;;;;;20.00;48.50;;;;;;5085593;28;19928;-59
2023/12/29 09:37:40;;;;;;;;;;;19.90;48.40;;;;;;5090642;28;19932;-59
2023/12/29 09:40:08;;;;;;;;;;;20.00;48.60;;;;;;5096887;28;20316;-59
2023/12/29 09:42:35;;;;;;;;;;;19.90;48.40;;;;;;5087802;28;19927;-59
2023/12/29 09:45:01;;;;;;;;;;;19.90;48.30;;;;;;5090483;28;19950;-59
2023/12/29 09:47:28;;;;;;;;;;;20.00;49.00;;;;;;5089662;28;19927;-59
2023/12/29 09:49:55;;;;;;;;;;;19.90;48.20;;;;;;5093861;28;19920;-59
2023/12/29 09:52:23;;;;;;;;;;;20.00;48.30;;;;;;5096343;28;19924;-59
2023/12/29 09:54:50;;;;;;;;;;;19.90;48.20;;;;;;5086235;28;19973;-59
2023/12/29 09:57:18;;;;;;;;;;;20.00;48.30;;;;;;5099491;28;20433;-59
2023/12/29 09:59:44;;;;;;;;;;;19.90;48.20;;;;;;5090567;28;19920;-59
2023/12/29 10:02:13;;;;;;;;;;;20.00;48.30;;;;;;5091808;28;19924;-59
2023/12/29 10:04:39;;;;;;;;;;;20.00;48.30;;;;;;5092668;28;19921;-59
2023/12/29 10:07:07;;;;;;;;;;;19.90;48.30;;;;;;5092840;28;19969;-59
2023/12/29 10:09:36;;;;;;;;;;;19.90;48.30;;;;;;5100492;28;19923;-59
2023/12/29 10:12:03;;;;;;;;;;;20.00;48.30;;;;;;5085925;28;19920;-59
2023/12/29 10:14:32;;;;;;;;;;;19.90;48.30;;;;;;5106503;28;20009;-59
2023/12/29 10:17:00;;;;;;;;;;;19.90;48.30;;;;;;5106436;28;19991;-59
2023/12/29 10:19:29;;;;;;;;;;;20.00;48.40;;;;;;5074875;28;19932;-59
2023/12/29 10:21:56;;;;;;;;;;;20.00;48.40;;;;;;5083286;28;19926;-59
2023/12/29 10:24:23;;;;;;;;;;;20.00;48.40;;;;;;5100173;28;20128;-59
2023/12/29 10:26:53;;;;;;;;;;;19.90;48.30;;;;;;5096640;28;19924;-59
2023/12/29 10:29:20;;;;;;;;;;;20.00;48.40;;;;;;5101042;28;20043;-59
2023/12/29 10:31:47;;;;;;;;;;;20.00;48.40;;;;;;5111109;28;19959;-59
2023/12/29 10:34:21;;;;;;;;;;;20.00;48.40;;;;;;5094739;28;20426;-59
2023/12/29 10:36:47;;;;;;;;;;;19.90;48.30;;;;;;5094544;28;19927;-59
2023/12/29 10:39:15;;;;;;;;;;;20.00;48.40;;;;;;5096075;28;19931;-59
2023/12/29 10:41:41;;;;;;;;;;;20.00;48.50;;;;;;5092893;28;19920;-59
2023/12/29 10:44:09;;;;;;;;;;;20.00;48.50;;;;;;5088890;28;19986;-59
2023/12/29 10:46:36;;;;;;;;;;;20.00;48.50;;;;;;5090015;28;19978;-59
2023/12/29 10:49:08;;;;;;;;;;;19.90;48.10;;;;;;5093583;28;19920;-59
2023/12/29 10:51:34;;;;;;;;;;;19.90;47.50;;;;;;5093988;28;19994;-59
2023/12/29 10:54:01;;;;;;;;;;;19.90;47.10;;;;;;5088567;28;19926;-59
2023/12/29 10:56:28;;;;;;;;;;;19.90;47.10;;;;;;5072593;28;19920;-59
2023/12/29 10:58:58;;;;;;;;;;;19.90;47.20;;;;;;5067949;28;19920;-59
2023/12/29 11:01:27;;;;;;;;;;;19.90;47.20;;;;;;5080179;28;19920;-59
2023/12/29 11:04:02;;;;;;;;;;;19.90;47.30;;;;;;5072180;28;19954;-59
2023/12/29 11:06:29;;;;;;;;;;;19.90;47.40;;;;;;5074859;28;20323;-59
2023/12/29 11:08:56;;;;;;;;;;;19.90;47.50;;;;;;5104529;28;19972;-59
2023/12/29 11:11:23;;;;;;;;;;;19.90;47.60;;;;;;5074379;28;19942;-59
2023/12/29 11:13:51;;;;;;;;;;;19.90;47.60;;;;;;5059778;28;19959;-59
2023/12/29 11:16:21;;;;;;;;;;;19.90;47.70;;;;;;5078608;28;19928;-59
2023/12/29 11:18:49;;;;;;;;;;;19.90;47.70;;;;;;5091571;28;19973;-59
2023/12/29 11:21:16;;;;;;;;;;;19.90;47.70;;;;;;5081417;28;20012;-59
2023/12/29 11:23:42;;;;;;;;;;;19.90;47.80;;;;;;5081865;28;19939;-59
2023/12/29 11:26:09;;;;;;;;;;;19.90;47.80;;;;;;5082262;28;19920;-59
2023/12/29 11:28:36;;;;;;;;;;;19.90;47.80;;;;;;5073632;28;19970;-59
2023/12/29 11:31:03;;;;;;;;;;;19.90;47.90;;;;;;5085593;28;19919;-59
2023/12/29 11:33:31;;;;;;;;;;;19.90;47.90;;;;;;5094230;28;19920;-59
2023/12/29 11:36:00;;;;;;;;;;;19.90;47.90;;;;;;5085833;28;19927;-59
2023/12/29 11:38:34;;;;;;;;;;;19.90;48.50;;;;;;5100335;28;19920;-59
2023/12/29 11:41:03;;;;;;;;;;;19.90;47.90;;;;;;5100612;28;19969;-60
2023/12/29 11:43:29;;;;;;;;;;;19.90;47.90;;;;;;5091448;28;19928;-59
2023/12/29 11:45:56;;;;;;;;;;;19.90;48.00;;;;;;5101738;28;19920;-59
2023/12/29 11:48:41;;;;;;;;;;;19.90;48.00;;;;;;5073970;28;20113;-60
2023/12/29 11:51:22;;;;;;;;;;;19.90;47.90;;;;;;5087409;28;20430;-60
2023/12/29 11:53:51;;;;;;;;;;;19.90;47.90;;;;;;5095897;28;19924;-59
2023/12/29 11:56:17;;;;;;;;;;;19.90;47.90;;;;;;5077008;28;20349;-59
2023/12/29 11:58:44;;;;;;;;;;;19.90;47.90;;;;;;5073090;28;19924;-59
2023/12/29 12:01:11;;;;;;;;;;;19.90;47.90;;;;;;5099270;28;20318;-59
2023/12/29 12:03:37;;;;;;;;;;;19.90;47.90;;;;;;5087898;28;19977;-59
2023/12/29 12:06:04;;;;;;;;;;;19.90;47.90;;;;;;5089399;28;19924;-59
2023/12/29 12:08:30;;;;;;;;;;;19.90;48.00;;;;;;5088454;28;19931;-59
2023/12/29 12:11:19;;;;;;;;;;;19.90;48.00;;;;;;5070307;28;19920;-59
2023/12/29 12:13:46;;;;;;;;;;;19.90;48.00;;;;;;5070673;28;19965;-59
2023/12/29 12:16:31;;;;;;;;;;;19.90;48.00;;;;;;5075627;28;19920;-59
2023/12/29 12:18:58;;;;;;;;;;;20.00;48.10;;;;;;5080377;28;19921;-59
2023/12/29 12:21:25;;;;;;;;;;;20.00;48.20;;;;;;5095860;28;19946;-59
2023/12/29 12:23:52;;;;;;;;;;;20.00;48.20;;;;;;5064899;28;19928;-59
2023/12/29 12:26:20;;;;;;;;;;;19.90;48.10;;;;;;5089606;28;19931;-59
2023/12/29 12:28:47;;;;;;;;;;;20.00;48.20;;;;;;5074370;28;19923;-59
2023/12/29 12:31:13;;;;;;;;;;;19.90;48.10;;;;;;5094288;28;20284;-59
2023/12/29 12:33:40;;;;;;;;;;;19.90;48.10;;;;;;5072671;28;19924;-59
2023/12/29 12:36:09;;;;;;;;;;;19.90;48.10;;;;;;5101847;28;19920;-58
2023/12/29 12:38:35;;;;;;;;;;;20.00;48.20;;;;;;5092841;28;19943;-59
2023/12/29 12:41:10;;;;;;;;;;;20.00;48.20;;;;;;5086352;28;19920;-59
2023/12/29 12:43:38;;;;;;;;;;;19.90;48.20;;;;;;5099380;28;19923;-59
2023/12/29 12:46:05;;;;;;;;;;;19.90;48.10;;;;;;5065635;28;19939;-59
2023/12/29 12:48:34;;;;;;;;;;;20.00;48.20;;;;;;5074308;28;19920;-59
2023/12/29 12:51:01;;;;;;;;;;;19.90;48.20;;;;;;5091260;28;19923;-59
2023/12/29 12:53:28;;;;;;;;;;;19.90;48.20;;;;;;5087122;28;19927;-59
2023/12/29 12:55:56;;;;;;;;;;;19.90;48.10;;;;;;5092820;28;20189;-59
2023/12/29 12:58:23;;;;;;;;;;;19.90;48.10;;;;;;5122802;27;20091;-59
2023/12/29 13:00:51;;;;;;;;;;;19.90;48.20;;;;;;5092331;28;19981;-59
2023/12/29 13:03:18;;;;;;;;;;;19.90;48.10;;;;;;5084760;28;19924;-59
2023/12/29 13:05:45;;;;;;;;;;;20.00;48.30;;;;;;5090217;28;19924;-59
2023/12/29 13:08:12;;;;;;;;;;;20.00;48.30;;;;;;5086989;28;19928;-59
2023/12/29 13:10:41;;;;;;;;;;;20.00;48.30;;;;;;5088719;28;19923;-59
2023/12/29 13:13:08;;;;;;;;;;;20.00;48.30;;;;;;5096767;28;19989;-59
2023/12/29 13:15:35;;;;;;;;;;;20.00;48.30;;;;;;5099078;28;19919;-59
2023/12/29 13:18:03;;;;;;;;;;;20.00;48.30;;;;;;5088671;28;19924;-59
2023/12/29 13:20:30;;;;;;;;;;;20.00;48.30;;;;;;5094191;28;19920;-59
2023/12/29 13:22:56;;;;;;;;;;;20.00;48.30;;;;;;5095858;28;19927;-59
2023/12/29 13:25:25;;;;;;;;;;;20.00;48.30;;;;;;5096390;28;19923;-59
2023/12/29 13:27:52;;;;;;;;;;;20.00;48.30;;;;;;5087640;28;20345;-59
2023/12/29 13:30:18;;;;;;;;;;;20.00;48.30;;;;;;5090734;28;20354;-59
2023/12/29 13:32:46;;;;;;;;;;;20.00;48.30;;;;;;5096145;28;19919;-59
2023/12/29 13:35:18;;;;;;;;;;;20.00;48.30;;;;;;5089752;28;19966;-59
2023/12/29 13:37:46;;;;;;;;;;;20.00;48.30;;;;;;5122219;28;20064;-59
2023/12/29 13:40:13;;;;;;;;;;;20.00;48.30;;;;;;5078987;28;19969;-59
2023/12/29 13:42:40;;;;;;;;;;;20.00;48.30;;;;;;5081619;28;19928;-59
2023/12/29 13:45:07;;;;;;;;;;;20.00;48.30;;;;;;5123738;27;19969;-59
2023/12/29 13:47:34;;;;;;;;;;;20.00;48.30;;;;;;5092915;28;20350;-59
2023/12/29 13:50:01;;;;;;;;;;;20.00;48.30;;;;;;5076863;28;19924;-59
2023/12/29 13:52:29;;;;;;;;;;;20.00;48.30;;;;;;5085355;28;20334;-59
2023/12/29 13:54:56;;;;;;;;;;;20.00;48.30;;;;;;5091260;28;19920;-59
2023/12/29 13:57:30;;;;;;;;;;;20.00;48.30;;;;;;5093168;28;20302;-59
2023/12/29 13:59:57;;;;;;;;;;;20.00;48.30;;;;;;5113501;27;19920;-59
2023/12/29 14:02:26;;;;;;;;;;;20.00;48.40;;;;;;5090567;28;19950;-59
2023/12/29 14:05:06;;;;;;;;;;;20.00;48.30;;;;;;5103647;28;20318;-59
2023/12/29 14:07:34;;;;;;;;;;;20.00;48.30;;;;;;5089761;28;20289;-59
2023/12/29 14:10:01;;;;;;;;;;;20.00;48.40;;;;;;5093566;28;19920;-59
2023/12/29 14:12:28;;;;;;;;;;;20.00;48.40;;;;;;5125039;27;19946;-59
2023/12/29 14:14:55;;;;;;;;;;;20.00;48.40;;;;;;5101449;28;19936;-59
2023/12/29 14:17:22;;;;;;;;;;;20.00;48.40;;;;;;5094612;28;19924;-59